Time;durP1;ratioP1;P1;durP2;ratioP2;P2;SDS_P1;SDS_P2;PMS_P1;PMS_P2;Temp;Humidity;BMP_temperature;BMP_pressure;BME280_temperature;BME280_humidity;BME280_pressure;Samples;Min_cycle;Max_cycle;Signal;HPM_P1;HPM_P2
2021/08/11 00:01:56;;;;;;;8.70;6.40;;;13.60;99.90;;;;;;5031010;28;20217;-77
2021/08/11 00:04:23;;;;;;;8.93;5.67;;;13.60;99.90;;;;;;5014490;28;20208;-77
2021/08/11 00:06:49;;;;;;;9.83;6.03;;;13.50;99.90;;;;;;5014844;28;20199;-77
2021/08/11 00:09:16;;;;;;;8.57;5.77;;;13.60;99.90;;;;;;5034510;28;20198;-77
2021/08/11 00:11:43;;;;;;;10.33;5.70;;;13.60;99.90;;;;;;5047363;28;20563;-77
2021/08/11 00:14:10;;;;;;;11.93;6.53;;;13.60;99.90;;;;;;5026572;28;20618;-77
2021/08/11 00:16:38;;;;;;;8.57;6.10;;;13.50;99.90;;;;;;5034123;28;20203;-78
2021/08/11 00:19:05;;;;;;;8.80;5.93;;;13.50;99.90;;;;;;5037269;28;20290;-77
2021/08/11 00:21:32;;;;;;;9.70;6.20;;;13.50;99.90;;;;;;5047852;28;20585;-77
2021/08/11 00:23:59;;;;;;;9.17;6.43;;;13.50;99.90;;;;;;5024355;28;20290;-77
2021/08/11 00:26:26;;;;;;;8.77;6.37;;;13.50;99.90;;;;;;5034069;28;20195;-77
2021/08/11 00:28:53;;;;;;;7.80;5.43;;;13.50;99.90;;;;;;5054385;23;20227;-80
2021/08/11 00:31:20;;;;;;;10.43;6.57;;;13.50;99.90;;;;;;5015493;28;20201;-80
2021/08/11 00:33:48;;;;;;;9.93;6.13;;;13.60;99.90;;;;;;5013853;28;20586;-80
2021/08/11 00:36:15;;;;;;;8.97;6.40;;;13.60;99.90;;;;;;5016041;28;20287;-80
2021/08/11 00:38:42;;;;;;;8.30;6.17;;;13.70;99.90;;;;;;5016600;28;20645;-81
2021/08/11 00:41:08;;;;;;;8.70;5.70;;;13.50;99.90;;;;;;5017025;28;20462;-81
2021/08/11 00:43:35;;;;;;;8.90;5.97;;;13.70;99.90;;;;;;5017110;28;20670;-80
2021/08/11 00:46:02;;;;;;;9.17;5.50;;;13.50;99.90;;;;;;5018652;28;20308;-81
2021/08/11 00:48:29;;;;;;;9.73;6.30;;;13.60;99.90;;;;;;5017212;28;20230;-79
2021/08/11 00:50:58;;;;;;;8.53;6.23;;;13.60;99.90;;;;;;5016256;28;20660;-80
2021/08/11 00:53:27;;;;;;;9.60;6.00;;;13.70;99.90;;;;;;5017142;28;20197;-80
2021/08/11 00:55:57;;;;;;;10.10;5.60;;;13.70;99.90;;;;;;5016277;28;20437;-79
2021/08/11 00:58:25;;;;;;;7.87;5.73;;;13.50;99.90;;;;;;5016510;28;20211;-80
2021/08/11 01:00:53;;;;;;;10.27;5.70;;;13.60;99.90;;;;;;5015868;28;20204;-80
2021/08/11 01:03:21;;;;;;;7.13;5.40;;;13.50;99.90;;;;;;5015286;28;20215;-79
2021/08/11 01:05:49;;;;;;;8.37;6.10;;;13.60;99.90;;;;;;5016647;28;20307;-80
2021/08/11 01:08:19;;;;;;;7.90;6.10;;;13.50;99.90;;;;;;5015859;28;20200;-82
2021/08/11 01:10:50;;;;;;;10.20;5.80;;;13.60;99.90;;;;;;5014306;28;20208;-81
2021/08/11 01:13:18;;;;;;;9.93;6.07;;;13.60;99.90;;;;;;5016020;28;20226;-82
2021/08/11 01:15:46;;;;;;;6.80;5.47;;;13.60;99.90;;;;;;5017955;28;20699;-82
2021/08/11 01:18:14;;;;;;;9.00;5.50;;;13.60;99.90;;;;;;5021576;23;20627;-81
2021/08/11 01:20:51;;;;;;;8.83;5.73;;;13.60;99.90;;;;;;5016275;28;20200;-81
2021/08/11 01:23:23;;;;;;;8.70;5.60;;;13.60;99.90;;;;;;5014432;28;20362;-82
2021/08/11 01:25:56;;;;;;;7.07;5.60;;;13.50;99.90;;;;;;5015233;28;20811;-79
2021/08/11 01:28:41;;;;;;;7.13;4.83;;;13.50;99.90;;;;;;5015490;28;20210;-82
2021/08/11 01:31:14;;;;;;;9.90;5.10;;;13.50;99.90;;;;;;5013924;28;20201;-80
2021/08/11 01:33:48;;;;;;;8.40;5.57;;;13.50;99.90;;;;;;5015301;28;20215;-82
2021/08/11 01:36:27;;;;;;;7.53;5.57;;;13.30;99.90;;;;;;5012530;28;20593;-79
2021/08/11 01:39:00;;;;;;;8.03;6.00;;;13.50;99.90;;;;;;5014193;28;20204;-81
2021/08/11 01:41:33;;;;;;;8.40;5.43;;;13.40;99.90;;;;;;5012030;28;20201;-79
2021/08/11 01:44:01;;;;;;;11.90;5.70;;;13.40;99.90;;;;;;5014273;28;20348;-80
2021/08/11 01:46:30;;;;;;;7.10;5.43;;;13.30;99.90;;;;;;5012337;28;20318;-81
2021/08/11 01:49:03;;;;;;;8.87;5.10;;;13.30;99.90;;;;;;5013330;28;20210;-79
2021/08/11 01:51:32;;;;;;;8.20;5.77;;;13.30;99.90;;;;;;5012175;28;20200;-81
2021/08/11 01:54:00;;;;;;;12.93;5.87;;;13.30;99.90;;;;;;5013140;28;20204;-79
2021/08/11 01:56:27;;;;;;;7.97;5.70;;;13.30;99.90;;;;;;5008637;28;20234;-79
2021/08/11 01:58:55;;;;;;;7.87;5.40;;;13.50;99.90;;;;;;5009722;28;20201;-81
2021/08/11 02:01:22;;;;;;;9.77;5.57;;;13.40;99.90;;;;;;5012616;28;20204;-81
2021/08/11 02:03:49;;;;;;;8.63;5.67;;;13.30;99.90;;;;;;5007662;28;20245;-80
2021/08/11 02:06:18;;;;;;;6.83;5.47;;;13.40;99.90;;;;;;5012076;28;20216;-79
2021/08/11 02:08:46;;;;;;;7.80;5.27;;;13.30;99.90;;;;;;5013619;28;20219;-79
2021/08/11 02:11:14;;;;;;;7.90;5.70;;;13.20;99.90;;;;;;5013993;28;20652;-81
2021/08/11 02:13:41;;;;;;;9.77;5.97;;;13.20;99.90;;;;;;5010129;28;20304;-80
2021/08/11 02:16:08;;;;;;;11.47;5.63;;;13.10;99.90;;;;;;5005047;28;20613;-80
2021/08/11 02:18:35;;;;;;;8.13;5.53;;;13.10;99.90;;;;;;5014382;28;20220;-80
2021/08/11 02:21:02;;;;;;;8.20;5.77;;;13.20;99.90;;;;;;5013074;28;20295;-81
2021/08/11 02:23:31;;;;;;;9.73;5.43;;;13.20;99.90;;;;;;5012998;28;20228;-79
2021/08/11 02:26:16;;;;;;;10.13;5.83;;;13.10;99.90;;;;;;5012645;28;20697;-81
2021/08/11 02:28:51;;;;;;;8.90;5.20;;;13.00;99.90;;;;;;5011935;28;20291;-79
2021/08/11 02:31:29;;;;;;;10.43;5.67;;;13.10;99.90;;;;;;5013053;28;20199;-80
2021/08/11 02:34:03;;;;;;;8.60;6.00;;;12.90;99.90;;;;;;5006852;28;20204;-80
2021/08/11 02:36:40;;;;;;;9.30;6.23;;;13.00;99.90;;;;;;5004223;28;20228;-81
2021/08/11 02:39:12;;;;;;;8.73;6.03;;;13.10;99.90;;;;;;4996418;28;20201;-81
2021/08/11 02:41:45;;;;;;;8.60;5.90;;;13.20;99.90;;;;;;5003087;28;20197;-82
2021/08/11 02:44:15;;;;;;;7.17;5.67;;;13.20;99.90;;;;;;5013416;28;20200;-79
2021/08/11 02:46:44;;;;;;;9.63;6.43;;;13.20;99.90;;;;;;5009095;28;20234;-79
2021/08/11 02:49:15;;;;;;;8.43;6.13;;;13.10;99.90;;;;;;5011002;28;20795;-81
2021/08/11 02:51:43;;;;;;;9.50;6.70;;;13.20;99.90;;;;;;5006426;28;20197;-79
2021/08/11 02:54:14;;;;;;;8.43;5.80;;;13.20;99.90;;;;;;5011883;28;20210;-79
2021/08/11 02:56:45;;;;;;;10.63;6.83;;;13.10;99.90;;;;;;5010909;28;20238;-82
2021/08/11 02:59:12;;;;;;;12.77;7.00;;;13.10;99.90;;;;;;5013840;28;20200;-81
2021/08/11 03:01:40;;;;;;;9.53;6.17;;;13.10;99.90;;;;;;5012193;28;20204;-81
2021/08/11 03:04:07;;;;;;;9.47;6.30;;;13.10;99.90;;;;;;5013169;28;20272;-81
2021/08/11 03:06:35;;;;;;;9.50;5.70;;;13.00;99.90;;;;;;5012626;28;20227;-79
2021/08/11 03:09:03;;;;;;;10.20;6.20;;;13.00;99.90;;;;;;5013822;28;20203;-80
2021/08/11 03:11:33;;;;;;;9.27;6.37;;;12.90;99.90;;;;;;5012998;28;20204;-80
2021/08/11 03:14:02;;;;;;;11.17;6.23;;;12.90;99.90;;;;;;5011574;28;20223;-79
2021/08/11 03:16:29;;;;;;;10.07;6.37;;;13.00;99.90;;;;;;5012124;28;20584;-82
2021/08/11 03:18:56;;;;;;;12.07;6.43;;;13.00;99.90;;;;;;5011868;28;20208;-79
2021/08/11 03:21:23;;;;;;;12.57;6.73;;;12.90;99.90;;;;;;5013059;28;20291;-81
2021/08/11 03:23:50;;;;;;;8.80;6.67;;;12.80;99.90;;;;;;5012683;28;20430;-82
2021/08/11 03:26:17;;;;;;;12.50;6.80;;;12.90;99.90;;;;;;5012845;28;20633;-80
2021/08/11 03:28:45;;;;;;;12.37;6.27;;;13.00;99.90;;;;;;5012844;28;20223;-80
2021/08/11 03:31:12;;;;;;;9.90;5.97;;;13.00;99.90;;;;;;5011956;28;20736;-80
2021/08/11 03:33:39;;;;;;;9.53;6.73;;;13.00;99.90;;;;;;5012676;28;20218;-79
2021/08/11 03:36:06;;;;;;;10.77;6.67;;;13.00;99.90;;;;;;5012347;28;20220;-80
2021/08/11 03:38:32;;;;;;;11.77;6.60;;;12.90;99.90;;;;;;5012911;28;20208;-81
2021/08/11 03:40:59;;;;;;;9.97;6.23;;;12.90;99.90;;;;;;5010671;28;20291;-78
2021/08/11 03:43:26;;;;;;;11.40;6.73;;;12.70;99.90;;;;;;5012418;28;20271;-82
2021/08/11 03:45:55;;;;;;;12.53;7.17;;;12.90;99.90;;;;;;5010941;28;20720;-81
2021/08/11 03:48:22;;;;;;;14.80;7.40;;;12.90;99.90;;;;;;5019144;28;20282;-81
2021/08/11 03:50:49;;;;;;;12.70;6.57;;;13.00;99.90;;;;;;5011883;28;20644;-78
2021/08/11 03:53:16;;;;;;;14.37;7.57;;;12.90;99.90;;;;;;5013951;28;20202;-81
2021/08/11 03:55:43;;;;;;;8.67;6.23;;;12.90;99.90;;;;;;5011741;28;20661;-80
2021/08/11 03:58:09;;;;;;;10.33;6.77;;;13.00;99.90;;;;;;5014848;28;20200;-78
2021/08/11 04:00:36;;;;;;;10.20;6.60;;;13.00;99.90;;;;;;5007164;28;20304;-79
2021/08/11 04:03:04;;;;;;;10.00;6.60;;;12.90;99.90;;;;;;4997888;28;20270;-82
2021/08/11 04:05:31;;;;;;;9.70;6.17;;;13.00;99.90;;;;;;5006083;28;20235;-80
2021/08/11 04:07:58;;;;;;;13.53;6.87;;;12.80;99.90;;;;;;5010195;28;20244;-82
2021/08/11 04:10:25;;;;;;;9.83;6.30;;;12.70;99.90;;;;;;5006900;28;20212;-81
2021/08/11 04:12:52;;;;;;;11.17;6.90;;;12.90;99.90;;;;;;5010891;28;20212;-81
2021/08/11 04:15:19;;;;;;;9.00;6.63;;;13.10;99.90;;;;;;5008661;28;20220;-79
2021/08/11 04:17:45;;;;;;;32.40;6.23;;;13.20;99.90;;;;;;5010715;28;20300;-79
2021/08/11 04:20:15;;;;;;;8.50;6.47;;;12.90;99.90;;;;;;5010817;28;20230;-80
2021/08/11 04:22:42;;;;;;;10.73;6.67;;;12.80;99.90;;;;;;5006596;28;20211;-79
2021/08/11 04:25:09;;;;;;;11.43;6.63;;;12.80;99.90;;;;;;5010870;28;20590;-81
2021/08/11 04:27:36;;;;;;;9.70;6.17;;;12.80;99.90;;;;;;5006325;28;20611;-79
2021/08/11 04:30:04;;;;;;;10.83;6.83;;;12.80;99.90;;;;;;5007741;28;20200;-78
2021/08/11 04:32:30;;;;;;;9.60;6.23;;;13.10;99.90;;;;;;5010420;28;20228;-80
2021/08/11 04:34:57;;;;;;;10.77;6.97;;;13.10;99.90;;;;;;5010770;28;20200;-80
2021/08/11 04:37:25;;;;;;;10.63;6.30;;;13.20;99.90;;;;;;5010705;28;20358;-78
2021/08/11 04:39:52;;;;;;;10.23;6.53;;;13.40;99.90;;;;;;5009089;28;20296;-79
2021/08/11 04:42:21;;;;;;;10.97;5.60;;;13.20;99.90;;;;;;5010013;28;20212;-80
2021/08/11 04:44:48;;;;;;;10.80;6.60;;;13.00;99.90;;;;;;5008829;28;20204;-78
2021/08/11 04:47:14;;;;;;;8.43;6.00;;;12.90;99.90;;;;;;5010127;28;20315;-79
2021/08/11 04:49:41;;;;;;;11.60;6.80;;;12.90;99.90;;;;;;5011511;28;20208;-82
2021/08/11 04:52:08;;;;;;;10.83;6.47;;;13.30;99.90;;;;;;5011672;28;20213;-82
2021/08/11 04:54:36;;;;;;;12.00;6.40;;;13.30;99.90;;;;;;5014995;28;20227;-78
2021/08/11 04:57:05;;;;;;;11.77;6.30;;;13.20;99.90;;;;;;5013440;28;20262;-80
2021/08/11 04:59:32;;;;;;;8.53;5.87;;;13.10;99.90;;;;;;5015004;28;20208;-80
2021/08/11 05:01:58;;;;;;;9.93;5.67;;;13.20;99.90;;;;;;5015088;28;20208;-81
2021/08/11 05:04:25;;;;;;;10.60;6.60;;;13.40;99.90;;;;;;5014623;28;20235;-80
2021/08/11 05:06:52;;;;;;;9.83;7.03;;;13.50;99.90;;;;;;5014130;28;20217;-81
2021/08/11 05:09:19;;;;;;;9.50;7.20;;;13.70;99.90;;;;;;5014715;28;20235;-79
2021/08/11 05:11:47;;;;;;;11.47;7.80;;;13.70;99.90;;;;;;5012611;28;20227;-83
2021/08/11 05:14:14;;;;;;;11.40;7.37;;;13.80;99.90;;;;;;5012845;28;20208;-83
2021/08/11 05:16:41;;;;;;;11.90;7.80;;;13.90;99.90;;;;;;5013631;28;20299;-80
2021/08/11 05:19:07;;;;;;;11.27;7.33;;;14.10;99.90;;;;;;5012362;28;20208;-79
2021/08/11 05:21:35;;;;;;;11.50;7.80;;;14.30;99.90;;;;;;5013729;28;20204;-78
2021/08/11 05:24:03;;;;;;;13.37;8.17;;;14.10;99.90;;;;;;5013766;28;20220;-79
2021/08/11 05:26:30;;;;;;;15.47;8.60;;;14.10;99.90;;;;;;5013607;28;20228;-78
2021/08/11 05:28:58;;;;;;;14.07;8.40;;;14.20;99.90;;;;;;5012659;28;20204;-81
2021/08/11 05:31:25;;;;;;;12.37;8.87;;;14.30;99.90;;;;;;5013723;28;20585;-80
2021/08/11 05:33:51;;;;;;;14.43;9.10;;;14.40;99.90;;;;;;5007555;28;20294;-79
2021/08/11 05:36:18;;;;;;;14.63;9.43;;;14.40;99.90;;;;;;5008157;28;20228;-82
2021/08/11 05:38:45;;;;;;;14.27;9.13;;;14.60;99.90;;;;;;5014961;28;20772;-80
2021/08/11 05:41:12;;;;;;;13.33;9.30;;;14.60;99.90;;;;;;5016460;28;20222;-81
2021/08/11 05:43:39;;;;;;;14.90;9.53;;;14.70;99.90;;;;;;5016044;28;20570;-82
2021/08/11 05:46:07;;;;;;;15.50;9.50;;;14.70;99.90;;;;;;5013852;28;20222;-82
2021/08/11 05:48:34;;;;;;;12.90;8.47;;;14.70;99.90;;;;;;5016565;28;20200;-79
2021/08/11 05:51:01;;;;;;;16.47;9.47;;;14.60;99.90;;;;;;5014685;28;20215;-82
2021/08/11 05:53:28;;;;;;;15.10;9.37;;;14.60;99.90;;;;;;5007779;28;20207;-80
2021/08/11 05:55:54;;;;;;;16.13;9.23;;;14.80;99.90;;;;;;5013223;28;20232;-82
2021/08/11 05:58:21;;;;;;;12.50;9.30;;;14.90;99.90;;;;;;5009922;28;20303;-82
2021/08/11 06:00:48;;;;;;;19.10;11.43;;;15.10;99.90;;;;;;5010094;28;20232;-78
2021/08/11 06:03:16;;;;;;;17.97;11.10;;;15.10;99.90;;;;;;5008221;28;20288;-80
2021/08/11 06:05:43;;;;;;;19.80;11.20;;;15.20;99.90;;;;;;4995220;28;20267;-82
2021/08/11 06:08:10;;;;;;;18.00;11.97;;;15.30;99.90;;;;;;5015934;28;20239;-81
2021/08/11 06:10:37;;;;;;;20.10;11.53;;;15.40;99.90;;;;;;4995773;28;20292;-82
2021/08/11 06:13:04;;;;;;;19.67;12.70;;;15.50;99.90;;;;;;5014367;28;20268;-82
2021/08/11 06:15:30;;;;;;;18.53;11.27;;;15.60;99.90;;;;;;5018022;28;20204;-80
2021/08/11 06:17:57;;;;;;;19.55;12.13;;;15.70;99.90;;;;;;5013030;28;20235;-83
2021/08/11 06:20:26;;;;;;;21.50;13.52;;;15.70;99.90;;;;;;4999365;28;20212;-83
2021/08/11 06:22:53;;;;;;;21.87;13.90;;;15.60;99.90;;;;;;5009778;28;20720;-80
2021/08/11 06:25:20;;;;;;;21.45;13.65;;;15.80;99.90;;;;;;5018503;28;20236;-82
2021/08/11 06:27:47;;;;;;;22.17;13.27;;;16.40;99.90;;;;;;5015931;28;20287;-79
2021/08/11 06:30:14;;;;;;;21.13;13.00;;;16.30;99.90;;;;;;5048144;22;20331;-72
2021/08/11 06:32:43;;;;;;;20.13;13.93;;;16.10;99.90;;;;;;5011818;28;20204;-73
2021/08/11 06:35:10;;;;;;;22.58;14.75;;;16.10;99.90;;;;;;5012824;28;20205;-72
2021/08/11 06:37:48;;;;;;;22.13;14.95;;;16.10;99.90;;;;;;5011989;28;20226;-72
2021/08/11 06:40:16;;;;;;;23.20;15.38;;;16.20;99.90;;;;;;5013301;28;20211;-72
2021/08/11 06:42:43;;;;;;;25.88;17.13;;;16.30;99.90;;;;;;5012626;28;20572;-72
2021/08/11 06:45:11;;;;;;;27.02;17.85;;;16.30;99.90;;;;;;5012259;28;20666;-72
2021/08/11 06:47:38;;;;;;;29.67;17.88;;;16.40;99.90;;;;;;5011834;28;20211;-72
2021/08/11 06:50:07;;;;;;;30.42;19.42;;;16.40;99.90;;;;;;5013219;28;20524;-72
2021/08/11 06:52:34;;;;;;;31.77;19.75;;;16.50;99.90;;;;;;5011942;28;20762;-73
2021/08/11 06:55:04;;;;;;;29.55;18.90;;;16.60;99.90;;;;;;5012063;28;20662;-72
2021/08/11 06:57:31;;;;;;;30.40;19.33;;;16.60;99.90;;;;;;5007683;28;20224;-73
2021/08/11 06:59:58;;;;;;;33.23;21.60;;;16.60;99.90;;;;;;4991789;28;20201;-72
2021/08/11 07:02:25;;;;;;;32.03;20.70;;;16.60;99.90;;;;;;5006184;28;20239;-72
2021/08/11 07:04:52;;;;;;;31.90;21.17;;;16.50;99.90;;;;;;4995042;28;20211;-72
2021/08/11 07:07:19;;;;;;;32.53;21.17;;;16.70;99.90;;;;;;5000507;28;20490;-72
2021/08/11 07:09:46;;;;;;;33.63;22.15;;;16.60;99.90;;;;;;5007530;28;20205;-72
2021/08/11 07:12:14;;;;;;;31.85;20.83;;;16.60;99.90;;;;;;5009010;28;20629;-72
2021/08/11 07:14:41;;;;;;;32.03;22.38;;;16.60;99.90;;;;;;5005073;28;20670;-72
2021/08/11 07:17:07;;;;;;;30.60;21.10;;;16.70;99.90;;;;;;5008764;28;20314;-73
2021/08/11 07:19:34;;;;;;;31.65;21.10;;;16.80;99.90;;;;;;5009028;28;20207;-72
2021/08/11 07:22:01;;;;;;;31.08;21.13;;;16.80;99.90;;;;;;5010015;28;20658;-72
2021/08/11 07:24:28;;;;;;;30.95;21.42;;;16.90;99.90;;;;;;5007710;28;20745;-72
2021/08/11 07:26:56;;;;;;;30.00;20.67;;;16.90;99.90;;;;;;5009127;28;20216;-72
2021/08/11 07:29:24;;;;;;;30.77;20.55;;;17.10;99.90;;;;;;5008143;28;20658;-72
2021/08/11 07:31:51;;;;;;;30.17;20.50;;;17.20;99.90;;;;;;5007319;28;20627;-72
2021/08/11 07:34:18;;;;;;;32.22;21.27;;;17.30;99.90;;;;;;5005027;28;20217;-72
2021/08/11 07:36:45;;;;;;;32.05;21.33;;;17.50;99.90;;;;;;5007053;28;20686;-72
2021/08/11 07:39:12;;;;;;;27.27;18.98;;;17.60;99.90;;;;;;5007498;28;20222;-73
2021/08/11 07:41:39;;;;;;;27.42;20.20;;;17.60;99.90;;;;;;5008329;28;20848;-72
2021/08/11 07:44:06;;;;;;;30.52;19.27;;;17.50;99.90;;;;;;5006766;28;20210;-72
2021/08/11 07:46:35;;;;;;;31.63;21.05;;;17.60;99.90;;;;;;5009024;28;20209;-72
2021/08/11 07:49:01;;;;;;;30.85;20.40;;;17.80;99.90;;;;;;5009371;28;20238;-72
2021/08/11 07:51:28;;;;;;;29.63;20.42;;;17.90;99.90;;;;;;5008328;28;20356;-72
2021/08/11 07:53:55;;;;;;;28.80;19.88;;;18.00;99.90;;;;;;5006059;28;20208;-72
2021/08/11 07:56:22;;;;;;;26.77;19.77;;;17.90;99.90;;;;;;4997450;28;20260;-73
2021/08/11 07:58:49;;;;;;;28.38;19.50;;;17.70;99.90;;;;;;5004288;28;20216;-72
2021/08/11 08:01:16;;;;;;;28.60;21.30;;;17.70;99.90;;;;;;5002354;28;20215;-72
2021/08/11 08:03:44;;;;;;;29.33;20.75;;;17.70;99.90;;;;;;5000195;28;20299;-72
2021/08/11 08:06:13;;;;;;;30.98;20.73;;;17.90;99.90;;;;;;5001932;28;20872;-72
2021/08/11 08:08:40;;;;;;;30.33;21.05;;;18.20;99.90;;;;;;5004822;28;20216;-73
2021/08/11 08:11:07;;;;;;;29.70;21.25;;;18.20;99.90;;;;;;5006359;28;20204;-72
2021/08/11 08:13:34;;;;;;;27.50;20.20;;;18.40;99.90;;;;;;5007351;28;20575;-72
2021/08/11 08:16:00;;;;;;;30.58;20.38;;;18.30;99.90;;;;;;4994291;28;20208;-72
2021/08/11 08:18:27;;;;;;;28.08;19.80;;;18.20;99.90;;;;;;5007134;28;20223;-72
2021/08/11 08:20:56;;;;;;;28.25;20.98;;;18.30;99.90;;;;;;5007063;28;20214;-78
2021/08/11 08:23:25;;;;;;;29.55;20.30;;;18.60;99.90;;;;;;5006953;28;20205;-72
2021/08/11 08:25:51;;;;;;;26.65;20.15;;;18.50;99.90;;;;;;5007167;28;20200;-74
2021/08/11 08:28:18;;;;;;;25.90;19.85;;;18.40;99.90;;;;;;5010843;28;20824;-72
2021/08/11 08:30:47;;;;;;;27.35;19.67;;;18.80;99.90;;;;;;5010873;28;20223;-72
2021/08/11 08:33:14;;;;;;;29.58;20.38;;;18.90;99.90;;;;;;5011320;28;20219;-72
2021/08/11 08:35:41;;;;;;;26.73;19.50;;;19.00;99.90;;;;;;5009605;28;20216;-72
2021/08/11 08:38:09;;;;;;;27.08;19.55;;;18.70;99.90;;;;;;5011091;28;20224;-72
2021/08/11 08:40:38;;;;;;;27.38;20.17;;;18.70;99.90;;;;;;5010852;28;20200;-72
2021/08/11 08:43:07;;;;;;;24.63;18.35;;;18.70;99.90;;;;;;5011634;28;20216;-72
2021/08/11 08:45:34;;;;;;;24.13;18.73;;;19.00;99.90;;;;;;5009882;28;20214;-72
2021/08/11 08:48:04;;;;;;;26.17;19.20;;;19.00;99.90;;;;;;4991537;28;20205;-72
2021/08/11 08:50:32;;;;;;;26.75;18.40;;;19.00;99.90;;;;;;5011162;28;20258;-72
2021/08/11 08:53:00;;;;;;;24.42;18.25;;;19.10;99.90;;;;;;5010575;28;20216;-73
2021/08/11 08:55:30;;;;;;;25.42;18.50;;;19.20;99.90;;;;;;5008977;28;20204;-72
2021/08/11 08:57:57;;;;;;;26.48;18.75;;;19.30;99.90;;;;;;5009265;28;20259;-72
2021/08/11 09:00:25;;;;;;;25.75;18.75;;;19.40;99.90;;;;;;5009224;28;20200;-72
2021/08/11 09:02:53;;;;;;;24.85;18.13;;;19.50;99.90;;;;;;5010220;28;20223;-72
2021/08/11 09:05:19;;;;;;;26.08;18.48;;;19.50;99.90;;;;;;5010325;28;20235;-72
2021/08/11 09:07:49;;;;;;;25.23;18.35;;;19.50;99.90;;;;;;5006192;28;20720;-72
2021/08/11 09:10:21;;;;;;;25.05;18.30;;;19.40;99.90;;;;;;5009335;28;20650;-72
2021/08/11 09:12:51;;;;;;;25.10;17.60;;;19.90;99.90;;;;;;5012895;28;20212;-72
2021/08/11 09:15:29;;;;;;;25.52;17.10;;;20.20;99.90;;;;;;5010981;28;20748;-72
2021/08/11 09:17:57;;;;;;;23.98;16.50;;;20.30;99.90;;;;;;5009689;28;20222;-72
2021/08/11 09:20:26;;;;;;;25.20;16.83;;;20.40;99.90;;;;;;5010242;28;20638;-72
2021/08/11 09:22:55;;;;;;;25.45;17.13;;;20.80;99.90;;;;;;5010285;28;20209;-72
2021/08/11 09:25:22;;;;;;;24.73;16.88;;;21.40;99.90;;;;;;5008915;28;20209;-72
2021/08/11 09:27:51;;;;;;;22.92;15.48;;;20.90;99.90;;;;;;5010303;28;20306;-72
2021/08/11 09:30:19;;;;;;;22.27;15.35;;;20.60;99.90;;;;;;5008318;28;20219;-72
2021/08/11 09:32:58;;;;;;;23.60;16.63;;;20.90;99.90;;;;;;5010340;28;20219;-72
2021/08/11 09:35:26;;;;;;;27.58;16.40;;;20.60;99.90;;;;;;4990149;28;20208;-72
2021/08/11 09:37:56;;;;;;;21.10;14.68;;;20.90;99.90;;;;;;5008216;28;20231;-73
2021/08/11 09:40:25;;;;;;;20.25;14.18;;;21.40;99.90;;;;;;5008123;28;20201;-72
2021/08/11 09:42:58;;;;;;;22.77;15.88;;;21.70;99.90;;;;;;5009554;28;20655;-73
2021/08/11 09:45:27;;;;;;;26.35;16.67;;;22.30;99.90;;;;;;5008568;28;20583;-72
2021/08/11 09:47:59;;;;;;;21.40;14.98;;;22.10;99.90;;;;;;5010512;28;20204;-73
2021/08/11 09:50:34;;;;;;;20.00;13.88;;;21.80;99.90;;;;;;5009624;28;20640;-72
2021/08/11 09:53:01;;;;;;;21.08;13.70;;;22.50;99.90;;;;;;5003858;28;20209;-73
2021/08/11 09:55:28;;;;;;;21.85;14.15;;;22.70;99.90;;;;;;5003313;28;20662;-73
2021/08/11 09:57:56;;;;;;;20.70;14.15;;;22.30;99.90;;;;;;5004892;28;20231;-72
2021/08/11 10:00:23;;;;;;;19.27;14.00;;;21.80;99.90;;;;;;5005580;28;20482;-73
2021/08/11 10:03:04;;;;;;;20.58;13.50;;;21.80;99.90;;;;;;5005977;28;20207;-73
2021/08/11 10:05:35;;;;;;;20.55;13.20;;;22.00;99.90;;;;;;5006558;28;20401;-73
2021/08/11 10:08:03;;;;;;;19.60;12.50;;;21.90;99.90;;;;;;5008421;28;20287;-73
2021/08/11 10:10:46;;;;;;;15.10;11.07;;;22.40;99.90;;;;;;5008115;28;20204;-72
2021/08/11 10:13:16;;;;;;;17.00;10.68;;;22.70;99.90;;;;;;5028893;28;20219;-73
2021/08/11 10:15:44;;;;;;;17.05;10.45;;;22.50;99.90;;;;;;5010832;28;20589;-73
2021/08/11 10:18:13;;;;;;;15.68;8.95;;;22.60;99.90;;;;;;5008584;28;20224;-73
2021/08/11 10:20:42;;;;;;;15.70;9.68;;;22.90;99.90;;;;;;5008599;28;20196;-72
2021/08/11 10:23:09;;;;;;;13.45;8.82;;;22.50;99.90;;;;;;5008480;28;20692;-72
2021/08/11 10:25:36;;;;;;;12.80;8.63;;;23.00;99.90;;;;;;5006609;28;20661;-72
2021/08/11 10:28:04;;;;;;;9.23;6.38;;;22.80;99.90;;;;;;4989199;28;20201;-73
2021/08/11 10:30:33;;;;;;;8.40;5.90;;;22.70;99.90;;;;;;5003226;28;20291;-73
2021/08/11 10:33:01;;;;;;;13.07;8.02;;;22.90;99.90;;;;;;5004833;28;20674;-73
2021/08/11 10:35:29;;;;;;;12.52;7.90;;;23.00;99.90;;;;;;5007166;28;20212;-73
2021/08/11 10:37:58;;;;;;;13.80;7.65;;;22.80;99.90;;;;;;5008596;28;20241;-73
2021/08/11 10:40:25;;;;;;;11.13;7.18;;;22.80;99.90;;;;;;5006985;28;20224;-73
2021/08/11 10:42:54;;;;;;;12.73;7.13;;;22.90;99.90;;;;;;5005979;28;20304;-73
2021/08/11 10:45:23;;;;;;;10.27;6.28;;;23.30;99.90;;;;;;4988490;28;20654;-73
2021/08/11 10:47:52;;;;;;;9.13;5.50;;;23.10;99.90;;;;;;4999752;28;20204;-73
2021/08/11 10:50:19;;;;;;;8.90;4.70;;;23.30;99.90;;;;;;5007770;28;20658;-74
2021/08/11 10:52:47;;;;;;;8.68;5.45;;;23.60;99.90;;;;;;5007467;28;20212;-73
2021/08/11 10:55:15;;;;;;;7.68;5.60;;;23.70;99.90;;;;;;5007925;28;20295;-73
2021/08/11 10:57:46;;;;;;;10.65;5.93;;;23.80;99.90;;;;;;5007505;28;20227;-73
2021/08/11 11:00:41;;;;;;;11.10;6.25;;;23.80;99.90;;;;;;5008882;28;20632;-73
2021/08/11 11:03:10;;;;;;;11.30;6.32;;;24.10;99.90;;;;;;4995050;28;20686;-73
2021/08/11 11:06:02;;;;;;;9.80;6.30;;;23.80;99.90;;;;;;5007840;28;20212;-73
2021/08/11 11:08:36;;;;;;;10.10;6.20;;;24.00;99.90;;;;;;5008393;28;20212;-79
2021/08/11 11:11:31;;;;;;;9.95;5.93;;;24.00;99.90;;;;;;5009099;28;20207;-80
2021/08/11 11:13:58;;;;;;;8.98;6.25;;;24.30;99.90;;;;;;4964443;28;20228;-78
2021/08/11 11:17:01;;;;;;;8.68;6.15;;;24.40;99.90;;;;;;5008207;28;20217;-79
2021/08/11 11:19:32;;;;;;;10.05;6.38;;;23.70;99.90;;;;;;5008300;28;20254;-79
2021/08/11 11:21:59;;;;;;;9.90;6.45;;;24.10;99.90;;;;;;5007829;28;20219;-79
2021/08/11 11:24:51;;;;;;;8.40;5.72;;;24.90;99.90;;;;;;5000320;28;20204;-79
2021/08/11 11:27:59;;;;;;;9.55;6.15;;;24.60;99.90;;;;;;5007458;28;20216;-79
2021/08/11 11:30:39;;;;;;;8.95;5.80;;;24.40;99.90;;;;;;5003205;28;20219;-79
2021/08/11 11:33:31;;;;;;;9.75;5.90;;;24.50;99.90;;;;;;5004896;28;20681;-79
2021/08/11 11:36:22;;;;;;;8.98;6.35;;;24.20;99.90;;;;;;5006474;28;20213;-80
2021/08/11 11:39:06;;;;;;;9.82;6.10;;;23.80;99.90;;;;;;5003703;28;20227;-79
2021/08/11 11:41:34;;;;;;;9.73;6.00;;;23.90;99.90;;;;;;5006093;28;20227;-80
2021/08/11 11:44:43;;;;;;;11.60;6.22;;;23.50;99.90;;;;;;5005805;28;20665;-79
2021/08/11 11:47:10;;;;;;;9.00;5.68;;;24.30;99.90;;;;;;4944525;28;20219;-79
2021/08/11 11:49:37;;;;;;;8.55;6.22;;;24.70;99.90;;;;;;5005936;28;20430;-79
2021/08/11 11:52:12;;;;;;;7.70;5.35;;;24.50;99.90;;;;;;5000294;28;20580;-79
2021/08/11 11:54:43;;;;;;;9.68;6.03;;;24.90;99.90;;;;;;5005632;28;20207;-80
2021/08/11 11:57:10;;;;;;;8.02;5.13;;;24.90;99.90;;;;;;5006244;28;20291;-79
2021/08/11 11:59:43;;;;;;;11.07;4.57;;;24.40;99.90;;;;;;5003651;28;20288;-79
2021/08/11 12:02:21;;;;;;;5.55;3.78;;;24.10;99.90;;;;;;5006511;28;20219;-80
2021/08/11 12:05:02;;;;;;;6.18;4.57;;;24.30;99.90;;;;;;5011342;28;20556;-80
2021/08/11 12:07:32;;;;;;;8.15;4.53;;;24.30;99.90;;;;;;5012157;28;20242;-79
2021/08/11 12:10:00;;;;;;;6.40;4.43;;;24.00;99.90;;;;;;5008964;28;20737;-80
2021/08/11 12:12:27;;;;;;;9.15;3.97;;;23.90;99.90;;;;;;5013161;28;20208;-79
2021/08/11 12:15:15;;;;;;;4.53;3.47;;;24.00;99.90;;;;;;5012349;28;20608;-80
2021/08/11 12:17:42;;;;;;;6.65;3.72;;;24.30;99.90;;;;;;5011495;28;20238;-79
2021/08/11 12:20:28;;;;;;;4.50;3.90;;;24.30;99.90;;;;;;5013498;28;20222;-79
2021/08/11 12:22:56;;;;;;;4.97;3.90;;;24.40;99.90;;;;;;5009012;28;20204;-79
2021/08/11 12:25:26;;;;;;;5.63;3.70;;;24.70;99.90;;;;;;5012890;28;20387;-80
2021/08/11 12:28:14;;;;;;;8.13;4.30;;;24.50;99.90;;;;;;5011366;28;20570;-80
2021/08/11 12:30:42;;;;;;;4.90;3.97;;;24.50;99.90;;;;;;5005662;28;20216;-79
2021/08/11 12:33:10;;;;;;;8.20;4.18;;;24.30;99.90;;;;;;5005792;28;20212;-79
2021/08/11 12:35:42;;;;;;;7.50;4.25;;;25.00;99.90;;;;;;5011405;28;20580;-80
2021/08/11 12:38:11;;;;;;;6.75;4.15;;;25.30;99.90;;;;;;5010464;28;20228;-79
2021/08/11 12:40:39;;;;;;;5.72;4.15;;;25.00;99.90;;;;;;5005981;28;21001;-79
2021/08/11 12:43:07;;;;;;;4.93;4.20;;;24.40;99.90;;;;;;5009638;28;20292;-79
2021/08/11 12:45:48;;;;;;;4.65;4.15;;;25.00;99.90;;;;;;5008927;28;20642;-80
2021/08/11 12:48:25;;;;;;;7.60;4.70;;;25.20;99.90;;;;;;5008403;28;20303;-80
2021/08/11 12:50:52;;;;;;;6.85;4.28;;;25.00;99.90;;;;;;5004782;28;20212;-80